Time;durP1;ratioP1;P1;durP2;ratioP2;P2;SDS_P1;SDS_P2;PMS_P1;PMS_P2;Temp;Humidity;BMP_temperature;BMP_pressure;BME280_temperature;BME280_humidity;BME280_pressure;Samples;Min_cycle;Max_cycle;Signal;HPM_P1;HPM_P2
2022/04/17 13:46:31;;;;;;;3.80;2.95;;;;;;;;;;6182278;22;1194812;-72
2022/04/17 13:48:58;;;;;;;5.22;3.38;;;;;;;;;;6246424;22;20020;-73
2022/04/17 13:51:24;;;;;;;4.10;3.10;;;;;;;;;;6248679;22;20051;-71
2022/04/17 13:53:51;;;;;;;5.30;3.60;;;;;;;;;;6249924;22;20031;-71
2022/04/17 13:56:17;;;;;;;4.75;3.20;;;;;;;;;;6222774;22;20024;-72
2022/04/17 13:58:44;;;;;;;4.30;3.33;;;;;;;;;;6222516;22;20056;-71
2022/04/17 14:01:11;;;;;;;2.95;2.70;;;;;;;;;;6247776;22;20086;-72
2022/04/17 14:03:38;;;;;;;5.85;3.03;;;;;;;;;;6249500;22;20079;-73
2022/04/17 14:06:05;;;;;;;2.80;2.50;;;;;;;;;;6222942;22;20448;-73
2022/04/17 14:08:32;;;;;;;8.55;3.60;;;;;;;;;;6249567;22;20048;-73
2022/04/17 14:32:09;;;;;;;5.20;3.83;;;;;;;;;;5121030;27;20339;-69
2022/04/17 14:34:35;;;;;;;5.43;3.90;;;;;;;;;;5123882;27;20522;-70
2022/04/17 14:37:02;;;;;;;5.68;3.15;;;;;;;;;;5129734;27;20048;-70
2022/04/17 14:39:28;;;;;;;3.78;3.30;;;;;;;;;;5119109;27;20490;-69
2022/04/17 14:41:54;;;;;;;3.40;3.10;;;;;;;;;;5130460;27;20508;-70
2022/04/17 14:44:21;;;;;;;3.92;3.20;;;;;;;;;;5116130;27;20048;-70
2022/04/17 14:46:47;;;;;;;3.78;3.47;;;;;;;;;;5115253;27;20048;-69
2022/04/17 14:49:13;;;;;;;8.50;2.95;;;;;;;;;;5108831;27;20048;-68
2022/04/17 14:51:40;;;;;;;5.07;3.72;;;;;;;;;;5109206;27;20187;-68
2022/04/17 14:54:10;;;;;;;4.35;3.40;;;;;;;;;;5109569;28;20067;-69
2022/04/17 14:56:40;;;;;;;3.38;2.83;;;;;;;;;;5107244;27;20063;-69
2022/04/17 14:59:07;;;;;;;5.55;3.60;;;;;;;;;;5109115;28;20059;-69
2022/04/17 15:01:35;;;;;;;4.07;3.20;;;;;;;;;;5108752;27;20136;-68
2022/04/17 15:04:01;;;;;;;5.80;3.25;;;;;;;;;;5108076;27;20060;-69
2022/04/17 15:06:28;;;;;;;5.05;3.22;;;;;;;;;;5109381;27;20488;-69
2022/04/17 15:08:54;;;;;;;4.72;3.50;;;;;;;;;;5109534;27;20521;-69
2022/04/17 15:11:20;;;;;;;3.17;2.88;;;;;;;;;;5108412;27;20048;-69
2022/04/17 15:13:47;;;;;;;3.85;3.55;;;;;;;;;;5110004;28;20060;-69
2022/04/17 15:16:13;;;;;;;4.70;3.40;;;;;;;;;;5108708;27;20143;-70
2022/04/17 15:18:39;;;;;;;3.83;3.30;;;;;;;;;;5109878;27;20048;-68
2022/04/17 15:21:06;;;;;;;4.75;3.70;;;;;;;;;;5108503;27;20049;-70
2022/04/17 15:23:32;;;;;;;5.90;4.25;;;;;;;;;;5108355;27;20422;-69
2022/04/17 15:26:05;;;;;;;3.92;3.55;;;;;;;;;;5109926;27;20143;-69
2022/04/17 15:28:31;;;;;;;4.43;3.63;;;;;;;;;;5109233;28;20499;-69
2022/04/17 15:30:58;;;;;;;4.55;3.53;;;;;;;;;;5108906;27;20569;-69
2022/04/17 15:33:24;;;;;;;4.40;3.58;;;;;;;;;;5109135;28;20060;-69
2022/04/17 15:35:53;;;;;;;3.42;3.13;;;;;;;;;;5109134;27;20044;-70
2022/04/17 15:38:20;;;;;;;4.93;3.65;;;;;;;;;;5093883;27;20572;-70
2022/04/17 15:40:46;;;;;;;3.42;3.13;;;;;;;;;;5102297;27;20498;-70
2022/04/17 15:48:48;;;;;;;5.15;3.47;;;;;;;;;;5094553;28;20531;-69
2022/04/17 15:51:16;;;;;;;3.80;3.10;;;;;;;;;;5094110;28;20049;-71
2022/04/17 15:53:42;;;;;;;3.17;2.88;;;;;;;;;;5095020;28;20486;-68
2022/04/17 15:56:09;;;;;;;5.00;3.40;;;;;;;;;;5094055;28;20049;-71
2022/04/17 15:58:35;;;;;;;4.55;3.85;;;;;;;;;;5094924;28;20052;-72
2022/04/17 16:01:02;;;;;;;5.85;3.38;;;;;;;;;;5093527;28;20049;-71
2022/04/17 16:03:29;;;;;;;4.90;4.18;;;;;;;;;;5093534;28;20140;-70
2022/04/17 16:05:55;;;;;;;7.22;3.65;;;;;;;;;;5094766;28;20057;-72
2022/04/17 16:08:22;;;;;;;3.72;3.10;;;;;;;;;;5094892;28;20051;-73
2022/04/17 16:10:48;;;;;;;3.95;3.47;;;;;;;;;;5094753;28;20058;-72
2022/04/17 16:13:14;;;;;;;5.40;3.80;;;;;;;;;;5095153;28;20055;-70
2022/04/17 16:15:41;;;;;;;4.18;3.42;;;;;;;;;;5094406;28;20056;-68
2022/04/17 16:18:07;;;;;;;4.22;3.75;;;;;;;;;;5101564;27;20060;-70
2022/04/17 16:20:33;;;;;;;4.88;3.97;;;;;;;;;;5095474;28;20532;-71
2022/04/17 16:23:01;;;;;;;3.70;3.30;;;;;;;;;;5094506;28;20060;-72
2022/04/17 16:25:27;;;;;;;4.35;3.80;;;;;;;;;;5094519;28;20062;-71
2022/04/17 16:27:53;;;;;;;4.78;3.97;;;;;;;;;;5093575;28;20511;-70
2022/04/17 16:30:21;;;;;;;3.83;3.50;;;;;;;;;;5092808;28;20578;-69
2022/04/17 16:32:47;;;;;;;4.50;3.92;;;;;;;;;;5088774;28;20059;-70
2022/04/17 16:35:15;;;;;;;4.65;3.80;;;;;;;;;;5092356;28;20048;-70
2022/04/17 16:37:42;;;;;;;6.20;4.30;;;;;;;;;;5094700;28;20114;-70
2022/04/17 16:40:09;;;;;;;5.28;3.42;;;;;;;;;;5095599;28;20055;-70
2022/04/17 16:42:36;;;;;;;4.47;3.10;;;;;;;;;;5093939;28;20049;-70
2022/04/17 16:45:03;;;;;;;3.58;3.22;;;;;;;;;;5094641;28;20045;-69
2022/04/17 16:47:29;;;;;;;4.20;3.50;;;;;;;;;;5094300;28;20055;-70
2022/04/17 16:49:55;;;;;;;4.03;3.15;;;;;;;;;;5093367;28;20566;-70
2022/04/17 16:52:21;;;;;;;4.00;3.45;;;;;;;;;;5126438;27;20519;-71
2022/04/17 16:54:48;;;;;;;3.78;3.33;;;;;;;;;;5091923;28;20053;-70
2022/04/17 16:59:59;;;;;;;4.50;3.42;;;;;;;;;;5094106;28;20059;-71
2022/04/17 17:02:31;;;;;;;2.92;2.72;;;;;;;;;;5094433;28;20091;-69
2022/04/17 17:04:57;;;;;;;4.40;3.67;;;;;;;;;;5093686;28;20052;-71
2022/04/17 17:07:25;;;;;;;4.05;3.38;;;;;;;;;;5092901;28;20569;-71
2022/04/17 17:09:52;;;;;;;3.83;3.03;;;;;;;;;;5093460;28;20520;-69
2022/04/17 17:12:18;;;;;;;3.67;3.17;;;;;;;;;;5093682;28;20055;-70
2022/04/17 17:14:44;;;;;;;3.95;3.10;;;;;;;;;;5093713;28;20139;-70
2022/04/17 17:17:11;;;;;;;3.40;3.00;;;;;;;;;;5094390;28;20080;-70
2022/04/17 17:19:37;;;;;;;6.13;3.33;;;;;;;;;;5096037;28;20140;-70
2022/04/17 17:22:04;;;;;;;3.10;2.80;;;;;;;;;;5092464;28;20452;-69
2022/04/17 17:24:30;;;;;;;4.45;3.17;;;;;;;;;;5092884;28;20103;-70
2022/04/17 17:26:57;;;;;;;4.50;3.50;;;;;;;;;;5092627;28;20483;-69
2022/04/17 17:29:23;;;;;;;4.80;3.70;;;;;;;;;;5086252;27;20584;-70
2022/04/17 17:31:49;;;;;;;6.45;4.43;;;;;;;;;;5093420;28;20056;-70
2022/04/17 17:34:16;;;;;;;5.25;3.65;;;;;;;;;;5094459;28;20059;-70
2022/04/17 17:36:42;;;;;;;11.40;7.78;;;;;;;;;;5093553;28;20052;-70
2022/04/17 17:39:08;;;;;;;8.65;6.57;;;;;;;;;;5086578;28;20107;-70
2022/04/17 17:41:35;;;;;;;19.45;16.02;;;;;;;;;;5093645;28;20057;-69
2022/04/17 17:44:01;;;;;;;25.40;22.17;;;;;;;;;;5092936;28;20487;-71
2022/04/17 17:46:28;;;;;;;13.40;12.07;;;;;;;;;;5089098;27;20140;-70
2022/04/17 17:48:54;;;;;;;12.38;11.10;;;;;;;;;;5093253;28;20131;-70
2022/04/17 17:51:22;;;;;;;6.00;5.40;;;;;;;;;;5094067;28;20052;-70
2022/04/17 17:53:48;;;;;;;7.95;6.20;;;;;;;;;;5075216;28;20046;-70
2022/04/17 17:56:17;;;;;;;6.30;4.63;;;;;;;;;;5091384;28;20056;-69
2022/04/17 17:58:43;;;;;;;5.43;4.60;;;;;;;;;;5092185;28;20412;-71
2022/04/17 18:01:11;;;;;;;8.63;4.55;;;;;;;;;;5092045;28;20523;-70
2022/04/17 18:03:37;;;;;;;6.47;4.70;;;;;;;;;;5093154;28;20099;-69
2022/04/17 18:06:04;;;;;;;7.38;6.05;;;;;;;;;;5092791;28;20513;-70
2022/04/17 18:16:45;;;;;;;6.18;4.07;;;;;;;;;;5092523;28;20354;-70
2022/04/17 18:19:12;;;;;;;6.70;4.50;;;;;;;;;;5091424;28;20052;-69
2022/04/17 18:21:39;;;;;;;7.32;4.60;;;;;;;;;;5091784;28;20057;-71
2022/04/17 18:24:07;;;;;;;6.53;4.65;;;;;;;;;;5092331;28;20055;-70
2022/04/17 18:26:33;;;;;;;7.85;7.05;;;;;;;;;;5091457;28;20059;-70
2022/04/17 18:28:59;;;;;;;7.85;5.22;;;;;;;;;;5092316;28;20076;-69
2022/04/17 18:31:26;;;;;;;7.13;5.88;;;;;;;;;;5092369;28;20059;-71
2022/04/17 18:33:52;;;;;;;7.47;4.57;;;;;;;;;;5091791;28;20079;-71
2022/04/17 18:36:18;;;;;;;4.05;3.20;;;;;;;;;;5090809;28;20510;-71
2022/04/17 18:38:45;;;;;;;5.15;3.35;;;;;;;;;;5092103;28;20063;-69
2022/04/17 18:41:11;;;;;;;4.43;2.90;;;;;;;;;;5094372;28;20044;-70
2022/04/17 18:43:37;;;;;;;5.65;2.97;;;;;;;;;;5093497;28;20059;-70
2022/04/17 18:46:03;;;;;;;5.13;3.33;;;;;;;;;;5088537;28;20082;-70
2022/04/17 18:48:30;;;;;;;5.57;3.20;;;;;;;;;;5090660;28;20055;-71
2022/04/17 18:50:56;;;;;;;9.75;3.33;;;;;;;;;;5092117;28;20525;-68
2022/04/17 18:53:23;;;;;;;6.07;3.78;;;;;;;;;;5091494;28;20593;-70
2022/04/17 18:55:55;;;;;;;4.25;3.38;;;;;;;;;;5091875;28;20059;-69
2022/04/17 18:58:21;;;;;;;3.40;3.10;;;;;;;;;;5092340;28;20064;-70
2022/04/17 19:00:47;;;;;;;5.00;3.42;;;;;;;;;;5092376;28;20052;-70
2022/04/17 19:03:14;;;;;;;4.28;3.60;;;;;;;;;;5093092;28;20130;-69
2022/04/17 19:05:40;;;;;;;5.50;3.25;;;;;;;;;;5091981;28;20529;-70
2022/04/17 19:08:06;;;;;;;4.80;3.85;;;;;;;;;;5091029;28;20143;-73
2022/04/17 19:10:33;;;;;;;6.65;3.75;;;;;;;;;;5094874;28;20059;-72
2022/04/17 19:15:44;;;;;;;5.43;3.38;;;;;;;;;;5090535;28;20135;-71
2022/04/17 19:18:11;;;;;;;4.70;3.40;;;;;;;;;;5088265;28;20598;-72
2022/04/17 19:20:37;;;;;;;5.70;3.33;;;;;;;;;;5105067;27;20103;-70
2022/04/17 19:23:04;;;;;;;5.15;3.40;;;;;;;;;;5095440;28;20136;-72
2022/04/17 19:25:30;;;;;;;4.80;3.50;;;;;;;;;;5095812;28;20080;-72
2022/04/17 19:27:57;;;;;;;5.90;3.55;;;;;;;;;;5097187;28;20135;-72
2022/04/17 19:30:24;;;;;;;7.13;3.75;;;;;;;;;;5100500;27;20060;-70
2022/04/17 19:35:36;;;;;;;7.63;4.30;;;;;;;;;;5090434;28;20044;-73
2022/04/17 19:38:02;;;;;;;4.68;3.80;;;;;;;;;;5094287;28;20060;-72
2022/04/17 19:40:29;;;;;;;4.95;3.83;;;;;;;;;;5100544;28;20059;-73
2022/04/17 19:42:55;;;;;;;4.65;3.97;;;;;;;;;;5095151;27;20056;-70
2022/04/17 19:45:25;;;;;;;4.50;3.70;;;;;;;;;;5094052;28;20052;-73
2022/04/17 19:47:51;;;;;;;6.47;4.07;;;;;;;;;;5094783;28;20573;-71
2022/04/17 19:50:23;;;;;;;6.22;4.05;;;;;;;;;;5095400;28;20091;-72
2022/04/17 19:52:50;;;;;;;7.18;3.40;;;;;;;;;;5095147;28;20071;-71
2022/04/17 19:55:16;;;;;;;5.05;4.07;;;;;;;;;;5093884;28;20044;-71
2022/04/17 19:57:42;;;;;;;5.28;4.78;;;;;;;;;;5094732;28;20056;-72
2022/04/17 20:00:09;;;;;;;4.93;3.95;;;;;;;;;;5095481;28;20049;-71
2022/04/17 20:02:35;;;;;;;4.35;3.60;;;;;;;;;;5093598;28;20177;-72
2022/04/17 20:05:03;;;;;;;5.72;4.10;;;;;;;;;;5094871;28;20135;-71
2022/04/17 20:07:29;;;;;;;8.45;3.90;;;;;;;;;;5095079;28;20043;-72
2022/04/17 20:09:55;;;;;;;4.93;3.90;;;;;;;;;;5094379;28;20053;-72
2022/04/17 20:12:23;;;;;;;4.28;3.72;;;;;;;;;;5095034;28;20148;-71
2022/04/17 20:14:49;;;;;;;5.63;3.83;;;;;;;;;;5093763;28;20060;-71
2022/04/17 20:17:15;;;;;;;5.53;4.50;;;;;;;;;;5089486;28;20574;-72
2022/04/17 20:19:42;;;;;;;5.65;3.47;;;;;;;;;;5095167;28;20063;-72
2022/04/17 20:22:08;;;;;;;4.90;4.20;;;;;;;;;;5094783;28;20052;-72
2022/04/17 20:24:35;;;;;;;4.88;3.75;;;;;;;;;;5094707;28;20052;-71
2022/04/17 20:27:03;;;;;;;5.38;3.60;;;;;;;;;;5093625;28;20052;-72
2022/04/17 20:29:30;;;;;;;4.22;3.53;;;;;;;;;;5093693;28;20057;-71
2022/04/17 20:31:56;;;;;;;5.40;3.53;;;;;;;;;;5093757;28;20057;-71
2022/04/17 20:34:22;;;;;;;3.97;3.60;;;;;;;;;;5094281;28;20051;-72
2022/04/17 20:36:49;;;;;;;10.35;4.63;;;;;;;;;;5094195;28;20483;-72
2022/04/17 20:39:15;;;;;;;4.75;3.50;;;;;;;;;;5094323;28;20058;-72
2022/04/17 20:41:41;;;;;;;5.07;3.75;;;;;;;;;;5094705;28;20418;-71
2022/04/17 20:52:24;;;;;;;6.13;4.05;;;;;;;;;;5097431;28;20598;-72
2022/04/17 20:54:50;;;;;;;4.75;3.75;;;;;;;;;;5093200;28;20509;-72
2022/04/17 20:57:17;;;;;;;5.82;3.90;;;;;;;;;;5093577;28;20055;-72
2022/04/17 20:59:45;;;;;;;4.22;3.80;;;;;;;;;;5094184;28;20140;-72
2022/04/17 21:02:11;;;;;;;5.13;3.72;;;;;;;;;;5095079;28;20098;-72
2022/04/17 21:04:38;;;;;;;6.55;4.50;;;;;;;;;;5093104;28;20148;-72
2022/04/17 21:07:04;;;;;;;6.63;4.93;;;;;;;;;;5092755;28;20063;-72
2022/04/17 21:09:30;;;;;;;6.97;4.90;;;;;;;;;;5092825;28;20057;-71
2022/04/17 21:11:57;;;;;;;6.35;5.07;;;;;;;;;;5098735;28;20070;-70
2022/04/17 21:14:23;;;;;;;6.88;5.32;;;;;;;;;;5094083;28;20044;-71
2022/04/17 21:16:49;;;;;;;7.18;5.05;;;;;;;;;;5093852;28;20059;-71
2022/04/17 21:19:15;;;;;;;8.25;5.72;;;;;;;;;;5093418;28;20057;-72
2022/04/17 21:21:42;;;;;;;6.63;5.53;;;;;;;;;;5092453;28;20044;-72
2022/04/17 21:24:08;;;;;;;11.32;5.80;;;;;;;;;;5092590;28;20553;-71
2022/04/17 21:26:34;;;;;;;9.82;6.20;;;;;;;;;;5092091;28;20644;-71
2022/04/17 21:29:02;;;;;;;10.30;6.95;;;;;;;;;;5093949;28;20051;-71
2022/04/17 21:31:28;;;;;;;10.45;6.47;;;;;;;;;;5096481;28;20048;-71
2022/04/17 21:33:54;;;;;;;8.48;6.53;;;;;;;;;;5093632;28;20130;-72
2022/04/17 21:36:21;;;;;;;10.90;7.30;;;;;;;;;;5091724;28;20067;-72
2022/04/17 21:38:48;;;;;;;9.93;7.15;;;;;;;;;;5092501;28;20044;-72
2022/04/17 21:41:14;;;;;;;12.00;7.63;;;;;;;;;;5092370;28;20048;-71
2022/04/17 21:43:40;;;;;;;10.50;7.35;;;;;;;;;;5092431;28;20144;-72
2022/04/17 21:46:07;;;;;;;12.60;7.65;;;;;;;;;;5092955;28;20518;-72
2022/04/17 21:48:33;;;;;;;8.60;6.80;;;;;;;;;;5093549;28;20140;-72
2022/04/17 21:50:59;;;;;;;11.25;7.63;;;;;;;;;;5093500;28;20063;-71
2022/04/17 21:53:26;;;;;;;9.63;7.05;;;;;;;;;;5095446;27;20143;-70
2022/04/17 21:55:53;;;;;;;11.07;7.68;;;;;;;;;;5093610;28;20551;-71
2022/04/17 21:58:19;;;;;;;10.02;7.20;;;;;;;;;;5093217;28;20432;-71
2022/04/17 22:06:26;;;;;;;10.57;7.72;;;;;;;;;;5092706;28;20052;-71
2022/04/17 22:08:52;;;;;;;10.13;7.50;;;;;;;;;;5093742;28;20575;-73
2022/04/17 22:11:18;;;;;;;11.07;7.60;;;;;;;;;;5092204;28;20135;-72
2022/04/17 22:13:45;;;;;;;10.38;7.80;;;;;;;;;;5092753;28;20052;-71
2022/04/17 22:16:11;;;;;;;9.32;7.00;;;;;;;;;;5092816;28;20048;-72
2022/04/17 22:18:38;;;;;;;9.52;7.05;;;;;;;;;;5096276;28;20052;-70
2022/04/17 22:21:04;;;;;;;9.30;7.38;;;;;;;;;;5091712;28;20049;-70
2022/04/17 22:23:30;;;;;;;9.80;6.88;;;;;;;;;;5092514;28;20048;-71
2022/04/17 22:25:56;;;;;;;11.65;7.53;;;;;;;;;;5090795;28;20056;-70
2022/04/17 22:28:23;;;;;;;12.02;8.15;;;;;;;;;;5092730;28;20041;-71
2022/04/17 22:30:50;;;;;;;11.05;7.32;;;;;;;;;;5092265;28;20048;-70
2022/04/17 22:33:17;;;;;;;10.68;7.55;;;;;;;;;;5091607;28;20056;-70
2022/04/17 22:35:44;;;;;;;11.65;8.50;;;;;;;;;;5092842;28;20545;-71
2022/04/17 22:38:10;;;;;;;11.60;7.70;;;;;;;;;;5092654;28;20053;-71
2022/04/17 22:40:37;;;;;;;11.38;8.35;;;;;;;;;;5091911;28;20170;-69
2022/04/17 22:43:03;;;;;;;9.45;7.28;;;;;;;;;;5091533;28;20526;-71
2022/04/17 22:45:29;;;;;;;13.75;7.90;;;;;;;;;;5093433;28;20538;-70
2022/04/17 22:47:56;;;;;;;9.75;7.18;;;;;;;;;;5094439;28;20049;-70
2022/04/17 22:50:22;;;;;;;10.05;7.55;;;;;;;;;;5091772;28;20483;-71
2022/04/17 22:52:48;;;;;;;10.63;7.55;;;;;;;;;;5093266;28;20052;-71
2022/04/17 22:55:15;;;;;;;11.07;7.78;;;;;;;;;;5096050;28;20388;-71
2022/04/17 22:57:41;;;;;;;9.05;7.05;;;;;;;;;;5095835;28;20044;-71
2022/04/17 23:02:54;;;;;;;13.18;7.63;;;;;;;;;;5094955;28;20364;-70
2022/04/17 23:05:21;;;;;;;8.88;7.30;;;;;;;;;;5095630;28;20064;-71
2022/04/17 23:07:47;;;;;;;10.50;8.10;;;;;;;;;;5088852;28;20472;-71
2022/04/17 23:10:13;;;;;;;8.95;6.90;;;;;;;;;;5091306;28;20499;-71
2022/04/17 23:12:40;;;;;;;10.77;7.03;;;;;;;;;;5094977;28;20048;-71
2022/04/17 23:15:07;;;;;;;11.45;7.25;;;;;;;;;;5096282;28;20079;-71
2022/04/17 23:17:35;;;;;;;11.23;7.97;;;;;;;;;;5094625;28;20053;-71
2022/04/17 23:20:02;;;;;;;10.27;7.63;;;;;;;;;;5095677;28;20048;-71
2022/04/17 23:22:28;;;;;;;10.93;7.55;;;;;;;;;;5094096;28;20140;-70
2022/04/17 23:24:54;;;;;;;11.00;7.25;;;;;;;;;;5093993;28;20044;-71
2022/04/17 23:27:21;;;;;;;9.88;7.90;;;;;;;;;;5095194;28;20054;-71
2022/04/17 23:29:47;;;;;;;9.25;7.78;;;;;;;;;;5094119;28;20483;-72
2022/04/17 23:32:13;;;;;;;10.98;7.80;;;;;;;;;;5093415;28;20071;-71
2022/04/17 23:34:39;;;;;;;10.13;7.85;;;;;;;;;;5094343;28;20044;-71
2022/04/17 23:37:06;;;;;;;11.38;8.20;;;;;;;;;;5095158;28;20139;-72
2022/04/17 23:39:32;;;;;;;11.52;8.00;;;;;;;;;;5095177;28;20051;-72
2022/04/17 23:41:58;;;;;;;11.48;8.25;;;;;;;;;;5095451;28;20558;-71
2022/04/17 23:44:25;;;;;;;11.70;8.63;;;;;;;;;;5093738;28;20048;-70
2022/04/17 23:46:51;;;;;;;13.00;8.50;;;;;;;;;;5095092;28;20148;-71
2022/04/17 23:49:17;;;;;;;9.95;8.20;;;;;;;;;;5095177;28;20147;-71
2022/04/17 23:51:43;;;;;;;10.60;8.25;;;;;;;;;;5098343;27;20055;-71
2022/04/17 23:54:10;;;;;;;11.48;8.80;;;;;;;;;;5094918;28;20055;-71
2022/04/17 23:56:36;;;;;;;10.98;8.52;;;;;;;;;;5093909;27;20062;-71
2022/04/17 23:59:02;;;;;;;10.63;7.90;;;;;;;;;;5099658;27;20055;-70
